sensor_id;sensor_type;location;lat;lon;timestamp;P1;durP1;ratioP1;P2;durP2;ratioP2
29712;SDS011;16623;53.632;10.016;2023-04-06T03:24:09;11.18;;;7.00;;
29712;SDS011;16623;53.632;10.016;2023-04-06T03:26:34;12.07;;;7.43;;
29712;SDS011;16623;53.632;10.016;2023-04-06T03:29:00;10.82;;;6.63;;
29712;SDS011;16623;53.632;10.016;2023-04-06T03:31:26;15.18;;;7.25;;
29712;SDS011;16623;53.632;10.016;2023-04-06T03:33:51;11.70;;;6.22;;
29712;SDS011;16623;53.632;10.016;2023-04-06T03:36:17;11.32;;;7.13;;
29712;SDS011;16623;53.632;10.016;2023-04-06T03:38:42;11.77;;;6.90;;
29712;SDS011;16623;53.632;10.016;2023-04-06T03:41:08;17.38;;;7.38;;
29712;SDS011;16623;53.632;10.016;2023-04-06T03:43:34;14.30;;;7.00;;
29712;SDS011;16623;53.632;10.016;2023-04-06T03:46:00;11.55;;;6.75;;
29712;SDS011;16623;53.632;10.016;2023-04-06T03:48:26;19.13;;;7.97;;
29712;SDS011;16623;53.632;10.016;2023-04-06T03:50:51;12.88;;;7.38;;
29712;SDS011;16623;53.632;10.016;2023-04-06T03:53:17;14.32;;;8.30;;
29712;SDS011;16623;53.632;10.016;2023-04-06T03:55:42;12.07;;;6.75;;
29712;SDS011;16623;53.632;10.016;2023-04-06T03:58:07;12.68;;;7.35;;
29712;SDS011;16623;53.632;10.016;2023-04-06T04:00:33;12.40;;;6.80;;
29712;SDS011;16623;53.632;10.016;2023-04-06T04:02:59;10.93;;;6.90;;
29712;SDS011;16623;53.632;10.016;2023-04-06T04:05:25;12.07;;;7.18;;
29712;SDS011;16623;53.632;10.016;2023-04-06T04:07:51;11.85;;;7.38;;
29712;SDS011;16623;53.632;10.016;2023-04-06T04:10:17;15.05;;;7.68;;
29712;SDS011;16623;53.632;10.016;2023-04-06T04:12:42;14.77;;;7.70;;
29712;SDS011;16623;53.632;10.016;2023-04-06T04:15:08;14.00;;;7.78;;
29712;SDS011;16623;53.632;10.016;2023-04-06T04:17:34;11.50;;;7.50;;
29712;SDS011;16623;53.632;10.016;2023-04-06T04:19:59;16.33;;;7.55;;
29712;SDS011;16623;53.632;10.016;2023-04-06T04:22:25;11.88;;;7.20;;
29712;SDS011;16623;53.632;10.016;2023-04-06T04:24:52;16.15;;;8.10;;
29712;SDS011;16623;53.632;10.016;2023-04-06T04:27:18;13.85;;;8.25;;
29712;SDS011;16623;53.632;10.016;2023-04-06T04:29:43;12.55;;;6.85;;
29712;SDS011;16623;53.632;10.016;2023-04-06T04:32:09;15.35;;;7.53;;
29712;SDS011;16623;53.632;10.016;2023-04-06T04:34:34;15.68;;;7.93;;
29712;SDS011;16623;53.632;10.016;2023-04-06T04:37:00;12.40;;;6.88;;
29712;SDS011;16623;53.632;10.016;2023-04-06T04:39:26;14.93;;;7.13;;
29712;SDS011;16623;53.632;10.016;2023-04-06T04:41:51;15.98;;;7.72;;
29712;SDS011;16623;53.632;10.016;2023-04-06T04:44:17;13.90;;;8.32;;
29712;SDS011;16623;53.632;10.016;2023-04-06T04:46:42;20.13;;;6.97;;
29712;SDS011;16623;53.632;10.016;2023-04-06T04:49:08;15.35;;;7.60;;
29712;SDS011;16623;53.632;10.016;2023-04-06T04:51:33;18.98;;;7.43;;
29712;SDS011;16623;53.632;10.016;2023-04-06T04:53:59;14.18;;;8.50;;
29712;SDS011;16623;53.632;10.016;2023-04-06T04:56:25;10.52;;;6.75;;
29712;SDS011;16623;53.632;10.016;2023-04-06T04:58:50;15.88;;;7.72;;
29712;SDS011;16623;53.632;10.016;2023-04-06T05:01:16;14.45;;;7.57;;
29712;SDS011;16623;53.632;10.016;2023-04-06T05:03:41;18.75;;;6.65;;
29712;SDS011;16623;53.632;10.016;2023-04-06T05:06:07;12.95;;;7.38;;
29712;SDS011;16623;53.632;10.016;2023-04-06T05:08:33;17.92;;;8.93;;
29712;SDS011;16623;53.632;10.016;2023-04-06T05:10:58;12.48;;;7.03;;
29712;SDS011;16623;53.632;10.016;2023-04-06T05:13:24;13.50;;;8.13;;
29712;SDS011;16623;53.632;10.016;2023-04-06T05:15:50;12.77;;;7.68;;
29712;SDS011;16623;53.632;10.016;2023-04-06T05:18:15;16.08;;;8.68;;
29712;SDS011;16623;53.632;10.016;2023-04-06T05:20:41;15.25;;;7.95;;
29712;SDS011;16623;53.632;10.016;2023-04-06T05:23:07;15.40;;;8.68;;
29712;SDS011;16623;53.632;10.016;2023-04-06T05:25:33;12.50;;;7.82;;
29712;SDS011;16623;53.632;10.016;2023-04-06T05:27:59;15.55;;;8.32;;
29712;SDS011;16623;53.632;10.016;2023-04-06T05:30:25;17.67;;;8.20;;
29712;SDS011;16623;53.632;10.016;2023-04-06T05:32:50;14.05;;;7.55;;
29712;SDS011;16623;53.632;10.016;2023-04-06T05:35:16;13.45;;;7.20;;
29712;SDS011;16623;53.632;10.016;2023-04-06T05:37:42;13.90;;;7.13;;
29712;SDS011;16623;53.632;10.016;2023-04-06T05:40:08;20.48;;;8.82;;
29712;SDS011;16623;53.632;10.016;2023-04-06T05:42:40;16.15;;;8.32;;
29712;SDS011;16623;53.632;10.016;2023-04-06T05:45:07;16.73;;;7.88;;
29712;SDS011;16623;53.632;10.016;2023-04-06T05:47:35;14.02;;;8.82;;
29712;SDS011;16623;53.632;10.016;2023-04-06T05:50:01;16.30;;;9.27;;
29712;SDS011;16623;53.632;10.016;2023-04-06T05:52:26;17.00;;;9.65;;
29712;SDS011;16623;53.632;10.016;2023-04-06T05:54:52;13.65;;;7.75;;
29712;SDS011;16623;53.632;10.016;2023-04-06T05:57:17;15.95;;;7.53;;
29712;SDS011;16623;53.632;10.016;2023-04-06T05:59:43;21.15;;;8.38;;
29712;SDS011;16623;53.632;10.016;2023-04-06T06:02:09;13.88;;;9.15;;
29712;SDS011;16623;53.632;10.016;2023-04-06T06:04:34;14.75;;;7.50;;
29712;SDS011;16623;53.632;10.016;2023-04-06T06:07:01;11.77;;;7.55;;
29712;SDS011;16623;53.632;10.016;2023-04-06T06:09:28;17.80;;;7.85;;
29712;SDS011;16623;53.632;10.016;2023-04-06T06:11:54;15.80;;;8.18;;
29712;SDS011;16623;53.632;10.016;2023-04-06T06:14:19;11.95;;;8.00;;
29712;SDS011;16623;53.632;10.016;2023-04-06T06:16:46;14.68;;;8.05;;
29712;SDS011;16623;53.632;10.016;2023-04-06T06:19:12;14.82;;;8.02;;
29712;SDS011;16623;53.632;10.016;2023-04-06T06:21:37;17.77;;;8.20;;
29712;SDS011;16623;53.632;10.016;2023-04-06T06:24:03;11.90;;;8.27;;
29712;SDS011;16623;53.632;10.016;2023-04-06T06:26:29;14.98;;;9.00;;
29712;SDS011;16623;53.632;10.016;2023-04-06T06:28:54;12.57;;;7.40;;
29712;SDS011;16623;53.632;10.016;2023-04-06T06:31:20;12.05;;;7.35;;
29712;SDS011;16623;53.632;10.016;2023-04-06T06:33:47;14.55;;;7.93;;
29712;SDS011;16623;53.632;10.016;2023-04-06T06:36:16;12.32;;;8.82;;
29712;SDS011;16623;53.632;10.016;2023-04-06T06:38:42;13.52;;;8.63;;
29712;SDS011;16623;53.632;10.016;2023-04-06T06:41:07;15.20;;;9.07;;
29712;SDS011;16623;53.632;10.016;2023-04-06T06:43:33;15.75;;;8.88;;
29712;SDS011;16623;53.632;10.016;2023-04-06T06:45:58;13.50;;;7.97;;
29712;SDS011;16623;53.632;10.016;2023-04-06T06:48:24;14.30;;;8.82;;
29712;SDS011;16623;53.632;10.016;2023-04-06T06:50:50;20.20;;;9.20;;
29712;SDS011;16623;53.632;10.016;2023-04-06T06:53:15;19.98;;;8.75;;
29712;SDS011;16623;53.632;10.016;2023-04-06T06:55:41;14.23;;;7.68;;
29712;SDS011;16623;53.632;10.016;2023-04-06T06:58:09;12.70;;;7.90;;
29712;SDS011;16623;53.632;10.016;2023-04-06T07:00:34;10.80;;;7.07;;
29712;SDS011;16623;53.632;10.016;2023-04-06T07:03:00;11.48;;;7.18;;
29712;SDS011;16623;53.632;10.016;2023-04-06T07:05:25;14.98;;;8.23;;
29712;SDS011;16623;53.632;10.016;2023-04-06T07:07:51;13.65;;;8.23;;
29712;SDS011;16623;53.632;10.016;2023-04-06T07:10:17;14.02;;;8.43;;
29712;SDS011;16623;53.632;10.016;2023-04-06T07:12:43;10.57;;;6.75;;
29712;SDS011;16623;53.632;10.016;2023-04-06T07:15:08;14.45;;;7.75;;
29712;SDS011;16623;53.632;10.016;2023-04-06T07:17:34;13.55;;;7.88;;
29712;SDS011;16623;53.632;10.016;2023-04-06T07:20:00;9.52;;;7.22;;
29712;SDS011;16623;53.632;10.016;2023-04-06T07:22:26;12.68;;;7.43;;
29712;SDS011;16623;53.632;10.016;2023-04-06T07:24:51;15.77;;;8.07;;
29712;SDS011;16623;53.632;10.016;2023-04-06T07:27:17;13.43;;;8.23;;
29712;SDS011;16623;53.632;10.016;2023-04-06T07:29:43;13.18;;;6.88;;
29712;SDS011;16623;53.632;10.016;2023-04-06T07:32:09;14.93;;;7.00;;
29712;SDS011;16623;53.632;10.016;2023-04-06T07:34:35;9.00;;;6.40;;
29712;SDS011;16623;53.632;10.016;2023-04-06T07:37:01;12.52;;;6.22;;
29712;SDS011;16623;53.632;10.016;2023-04-06T07:39:28;10.85;;;6.05;;
29712;SDS011;16623;53.632;10.016;2023-04-06T07:41:53;8.30;;;5.35;;
29712;SDS011;16623;53.632;10.016;2023-04-06T07:44:19;9.80;;;6.40;;
29712;SDS011;16623;53.632;10.016;2023-04-06T07:46:44;9.07;;;6.13;;
29712;SDS011;16623;53.632;10.016;2023-04-06T07:49:10;12.90;;;6.63;;
29712;SDS011;16623;53.632;10.016;2023-04-06T07:51:36;9.68;;;6.38;;
29712;SDS011;16623;53.632;10.016;2023-04-06T07:54:02;10.75;;;5.88;;
29712;SDS011;16623;53.632;10.016;2023-04-06T07:56:28;8.60;;;5.90;;
29712;SDS011;16623;53.632;10.016;2023-04-06T07:58:54;13.02;;;6.05;;
29712;SDS011;16623;53.632;10.016;2023-04-06T08:01:21;10.57;;;6.45;;
29712;SDS011;16623;53.632;10.016;2023-04-06T08:03:47;13.93;;;5.70;;
29712;SDS011;16623;53.632;10.016;2023-04-06T08:06:12;11.65;;;5.90;;
29712;SDS011;16623;53.632;10.016;2023-04-06T08:08:38;12.25;;;6.28;;
29712;SDS011;16623;53.632;10.016;2023-04-06T08:11:03;12.65;;;5.97;;
29712;SDS011;16623;53.632;10.016;2023-04-06T08:13:29;7.43;;;5.22;;
29712;SDS011;16623;53.632;10.016;2023-04-06T08:15:55;9.25;;;5.65;;
29712;SDS011;16623;53.632;10.016;2023-04-06T08:18:21;10.60;;;4.93;;
29712;SDS011;16623;53.632;10.016;2023-04-06T08:20:47;8.90;;;5.68;;
29712;SDS011;16623;53.632;10.016;2023-04-06T08:23:14;8.35;;;5.15;;
29712;SDS011;16623;53.632;10.016;2023-04-06T08:25:40;7.97;;;4.82;;
29712;SDS011;16623;53.632;10.016;2023-04-06T08:28:06;10.25;;;5.28;;
29712;SDS011;16623;53.632;10.016;2023-04-06T08:30:33;14.02;;;4.95;;
29712;SDS011;16623;53.632;10.016;2023-04-06T08:32:59;9.98;;;5.53;;
29712;SDS011;16623;53.632;10.016;2023-04-06T08:35:25;6.78;;;4.38;;
29712;SDS011;16623;53.632;10.016;2023-04-06T08:37:51;8.45;;;4.35;;
29712;SDS011;16623;53.632;10.016;2023-04-06T08:40:17;7.30;;;4.32;;
29712;SDS011;16623;53.632;10.016;2023-04-06T08:42:49;8.20;;;4.13;;
29712;SDS011;16623;53.632;10.016;2023-04-06T08:45:17;13.95;;;4.78;;
29712;SDS011;16623;53.632;10.016;2023-04-06T08:47:46;13.30;;;5.22;;
29712;SDS011;16623;53.632;10.016;2023-04-06T08:50:19;5.10;;;3.60;;
29712;SDS011;16623;53.632;10.016;2023-04-06T08:52:48;8.68;;;3.85;;
29712;SDS011;16623;53.632;10.016;2023-04-06T08:55:14;9.02;;;4.38;;
29712;SDS011;16623;53.632;10.016;2023-04-06T08:57:40;10.30;;;4.00;;
29712;SDS011;16623;53.632;10.016;2023-04-06T09:00:07;7.20;;;4.55;;
29712;SDS011;16623;53.632;10.016;2023-04-06T09:02:36;7.18;;;4.45;;
29712;SDS011;16623;53.632;10.016;2023-04-06T09:05:04;8.38;;;4.03;;
29712;SDS011;16623;53.632;10.016;2023-04-06T09:07:30;7.65;;;4.60;;
29712;SDS011;16623;53.632;10.016;2023-04-06T09:09:56;9.23;;;4.00;;
29712;SDS011;16623;53.632;10.016;2023-04-06T09:12:28;9.73;;;4.50;;
29712;SDS011;16623;53.632;10.016;2023-04-06T09:14:55;10.68;;;3.97;;
29712;SDS011;16623;53.632;10.016;2023-04-06T09:17:22;8.23;;;4.25;;
29712;SDS011;16623;53.632;10.016;2023-04-06T09:19:49;7.63;;;4.05;;
29712;SDS011;16623;53.632;10.016;2023-04-06T09:22:15;4.80;;;3.22;;
29712;SDS011;16623;53.632;10.016;2023-04-06T09:24:42;7.50;;;4.07;;
29712;SDS011;16623;53.632;10.016;2023-04-06T09:27:09;6.07;;;3.58;;
29712;SDS011;16623;53.632;10.016;2023-04-06T09:29:35;8.80;;;3.58;;
29712;SDS011;16623;53.632;10.016;2023-04-06T09:32:05;6.68;;;4.03;;
29712;SDS011;16623;53.632;10.016;2023-04-06T09:34:31;6.22;;;3.45;;
29712;SDS011;16623;53.632;10.016;2023-04-06T09:36:58;4.53;;;3.22;;
29712;SDS011;16623;53.632;10.016;2023-04-06T09:39:23;7.07;;;3.47;;
29712;SDS011;16623;53.632;10.016;2023-04-06T09:41:52;9.68;;;3.58;;
29712;SDS011;16623;53.632;10.016;2023-04-06T09:44:19;7.53;;;3.20;;
29712;SDS011;16623;53.632;10.016;2023-04-06T09:46:45;5.03;;;3.40;;
29712;SDS011;16623;53.632;10.016;2023-04-06T09:49:12;5.50;;;3.10;;
29712;SDS011;16623;53.632;10.016;2023-04-06T09:51:45;8.40;;;4.20;;
29712;SDS011;16623;53.632;10.016;2023-04-06T09:54:20;5.50;;;3.75;;
29712;SDS011;16623;53.632;10.016;2023-04-06T09:56:50;7.57;;;4.33;;
29712;SDS011;16623;53.632;10.016;2023-04-06T10:02:04;11.38;;;4.07;;
29712;SDS011;16623;53.632;10.016;2023-04-06T10:04:38;7.68;;;4.30;;
29712;SDS011;16623;53.632;10.016;2023-04-06T10:07:06;5.95;;;4.07;;
29712;SDS011;16623;53.632;10.016;2023-04-06T10:09:33;8.85;;;3.65;;
29712;SDS011;16623;53.632;10.016;2023-04-06T10:12:03;11.02;;;4.03;;
29712;SDS011;16623;53.632;10.016;2023-04-06T10:14:30;6.63;;;3.90;;
29712;SDS011;16623;53.632;10.016;2023-04-06T10:17:05;5.65;;;3.70;;
29712;SDS011;16623;53.632;10.016;2023-04-06T10:19:53;7.40;;;4.30;;
29712;SDS011;16623;53.632;10.016;2023-04-06T10:22:45;11.13;;;4.28;;
29712;SDS011;16623;53.632;10.016;2023-04-06T10:25:25;5.75;;;2.53;;
29712;SDS011;16623;53.632;10.016;2023-04-06T10:27:58;5.57;;;3.60;;
29712;SDS011;16623;53.632;10.016;2023-04-06T10:30:30;5.80;;;3.28;;
29712;SDS011;16623;53.632;10.016;2023-04-06T10:32:57;6.93;;;3.35;;
29712;SDS011;16623;53.632;10.016;2023-04-06T10:35:23;6.10;;;3.03;;
29712;SDS011;16623;53.632;10.016;2023-04-06T10:37:50;6.45;;;3.78;;
29712;SDS011;16623;53.632;10.016;2023-04-06T10:40:21;9.50;;;3.08;;
29712;SDS011;16623;53.632;10.016;2023-04-06T10:42:49;11.65;;;3.92;;
29712;SDS011;16623;53.632;10.016;2023-04-06T10:45:19;7.05;;;4.28;;
29712;SDS011;16623;53.632;10.016;2023-04-06T10:47:48;6.13;;;3.70;;
29712;SDS011;16623;53.632;10.016;2023-04-06T10:50:15;6.95;;;3.42;;
29712;SDS011;16623;53.632;10.016;2023-04-06T10:52:42;6.25;;;4.05;;
29712;SDS011;16623;53.632;10.016;2023-04-06T10:55:09;5.43;;;3.80;;
29712;SDS011;16623;53.632;10.016;2023-04-06T10:57:36;5.70;;;4.22;;
29712;SDS011;16623;53.632;10.016;2023-04-06T11:00:04;9.15;;;4.40;;
29712;SDS011;16623;53.632;10.016;2023-04-06T11:02:30;6.75;;;4.22;;
29712;SDS011;16623;53.632;10.016;2023-04-06T11:04:57;5.68;;;4.13;;
29712;SDS011;16623;53.632;10.016;2023-04-06T11:07:26;9.00;;;4.60;;
29712;SDS011;16623;53.632;10.016;2023-04-06T11:09:54;8.27;;;4.90;;
29712;SDS011;16623;53.632;10.016;2023-04-06T11:12:21;7.13;;;4.75;;
29712;SDS011;16623;53.632;10.016;2023-04-06T11:14:57;15.23;;;4.95;;
29712;SDS011;16623;53.632;10.016;2023-04-06T11:17:34;11.23;;;5.07;;
29712;SDS011;16623;53.632;10.016;2023-04-06T11:20:02;8.98;;;4.60;;
29712;SDS011;16623;53.632;10.016;2023-04-06T11:22:29;9.52;;;5.25;;
29712;SDS011;16623;53.632;10.016;2023-04-06T11:25:08;6.93;;;5.05;;
29712;SDS011;16623;53.632;10.016;2023-04-06T11:27:34;10.70;;;6.45;;
29712;SDS011;16623;53.632;10.016;2023-04-06T11:30:00;9.45;;;5.28;;
29712;SDS011;16623;53.632;10.016;2023-04-06T11:32:27;10.15;;;6.15;;
29712;SDS011;16623;53.632;10.016;2023-04-06T11:34:53;10.68;;;6.30;;
29712;SDS011;16623;53.632;10.016;2023-04-06T11:37:18;10.43;;;5.97;;
29712;SDS011;16623;53.632;10.016;2023-04-06T11:39:48;10.73;;;6.07;;
29712;SDS011;16623;53.632;10.016;2023-04-06T11:44:53;12.15;;;6.57;;
29712;SDS011;16623;53.632;10.016;2023-04-06T11:47:20;9.75;;;5.68;;
29712;SDS011;16623;53.632;10.016;2023-04-06T11:50:05;14.95;;;6.45;;
29712;SDS011;16623;53.632;10.016;2023-04-06T11:52:34;13.30;;;6.10;;
29712;SDS011;16623;53.632;10.016;2023-04-06T11:55:09;14.10;;;6.55;;
29712;SDS011;16623;53.632;10.016;2023-04-06T11:57:42;12.30;;;7.28;;
29712;SDS011;16623;53.632;10.016;2023-04-06T12:00:10;11.25;;;6.20;;
29712;SDS011;16623;53.632;10.016;2023-04-06T12:02:38;9.00;;;6.03;;
29712;SDS011;16623;53.632;10.016;2023-04-06T12:05:05;8.98;;;6.13;;
29712;SDS011;16623;53.632;10.016;2023-04-06T12:07:32;9.75;;;6.35;;
29712;SDS011;16623;53.632;10.016;2023-04-06T12:10:01;9.43;;;5.90;;
29712;SDS011;16623;53.632;10.016;2023-04-06T12:12:27;10.93;;;6.80;;
29712;SDS011;16623;53.632;10.016;2023-04-06T12:14:53;11.55;;;7.25;;
29712;SDS011;16623;53.632;10.016;2023-04-06T12:17:19;11.43;;;6.60;;
29712;SDS011;16623;53.632;10.016;2023-04-06T12:19:46;15.32;;;5.40;;
29712;SDS011;16623;53.632;10.016;2023-04-06T12:22:11;9.50;;;5.68;;
29712;SDS011;16623;53.632;10.016;2023-04-06T12:24:37;10.70;;;5.88;;
29712;SDS011;16623;53.632;10.016;2023-04-06T12:27:03;12.70;;;6.22;;
29712;SDS011;16623;53.632;10.016;2023-04-06T12:29:28;8.82;;;5.93;;
29712;SDS011;16623;53.632;10.016;2023-04-06T12:31:54;12.05;;;7.00;;
29712;SDS011;16623;53.632;10.016;2023-04-06T12:34:20;9.73;;;6.15;;
29712;SDS011;16623;53.632;10.016;2023-04-06T12:36:45;11.60;;;5.82;;
29712;SDS011;16623;53.632;10.016;2023-04-06T12:39:11;12.70;;;6.13;;
29712;SDS011;16623;53.632;10.016;2023-04-06T12:41:37;9.93;;;5.75;;
29712;SDS011;16623;53.632;10.016;2023-04-06T12:44:06;8.95;;;5.97;;
29712;SDS011;16623;53.632;10.016;2023-04-06T12:46:32;13.52;;;6.47;;
29712;SDS011;16623;53.632;10.016;2023-04-06T12:48:57;14.88;;;8.77;;
29712;SDS011;16623;53.632;10.016;2023-04-06T12:51:24;10.90;;;6.30;;
29712;SDS011;16623;53.632;10.016;2023-04-06T12:53:52;10.48;;;5.53;;
29712;SDS011;16623;53.632;10.016;2023-04-06T12:56:18;13.18;;;6.28;;
29712;SDS011;16623;53.632;10.016;2023-04-06T12:58:46;10.40;;;6.95;;
29712;SDS011;16623;53.632;10.016;2023-04-06T13:01:12;10.43;;;6.25;;
29712;SDS011;16623;53.632;10.016;2023-04-06T13:03:38;13.70;;;6.45;;
29712;SDS011;16623;53.632;10.016;2023-04-06T13:06:05;11.43;;;7.18;;
29712;SDS011;16623;53.632;10.016;2023-04-06T13:08:31;14.15;;;6.20;;
29712;SDS011;16623;53.632;10.016;2023-04-06T13:10:59;10.85;;;6.43;;
29712;SDS011;16623;53.632;10.016;2023-04-06T13:13:26;10.48;;;6.18;;
29712;SDS011;16623;53.632;10.016;2023-04-06T13:15:53;9.85;;;6.82;;
29712;SDS011;16623;53.632;10.016;2023-04-06T13:18:20;9.15;;;6.50;;
29712;SDS011;16623;53.632;10.016;2023-04-06T13:20:47;13.10;;;6.60;;
29712;SDS011;16623;53.632;10.016;2023-04-06T13:23:13;10.88;;;6.20;;
29712;SDS011;16623;53.632;10.016;2023-04-06T13:25:39;10.82;;;6.18;;
29712;SDS011;16623;53.632;10.016;2023-04-06T13:28:05;9.27;;;6.55;;
29712;SDS011;16623;53.632;10.016;2023-04-06T13:30:31;9.75;;;5.72;;
29712;SDS011;16623;53.632;10.016;2023-04-06T13:32:56;11.43;;;6.95;;
29712;SDS011;16623;53.632;10.016;2023-04-06T13:35:22;9.05;;;6.45;;
29712;SDS011;16623;53.632;10.016;2023-04-06T13:37:48;11.57;;;5.90;;
29712;SDS011;16623;53.632;10.016;2023-04-06T13:40:16;10.85;;;6.00;;
29712;SDS011;16623;53.632;10.016;2023-04-06T13:42:42;10.27;;;6.28;;
29712;SDS011;16623;53.632;10.016;2023-04-06T13:45:10;11.27;;;6.88;;
29712;SDS011;16623;53.632;10.016;2023-04-06T13:47:36;11.35;;;6.82;;
29712;SDS011;16623;53.632;10.016;2023-04-06T13:50:03;11.88;;;6.60;;
29712;SDS011;16623;53.632;10.016;2023-04-06T13:52:29;8.65;;;6.00;;
29712;SDS011;16623;53.632;10.016;2023-04-06T13:54:55;10.40;;;6.35;;
29712;SDS011;16623;53.632;10.016;2023-04-06T13:57:20;7.88;;;5.72;;
29712;SDS011;16623;53.632;10.016;2023-04-06T13:59:46;16.48;;;7.13;;
29712;SDS011;16623;53.632;10.016;2023-04-06T14:02:12;12.15;;;6.53;;
29712;SDS011;16623;53.632;10.016;2023-04-06T14:04:38;9.88;;;6.20;;
29712;SDS011;16623;53.632;10.016;2023-04-06T14:07:04;8.02;;;5.60;;
29712;SDS011;16623;53.632;10.016;2023-04-06T14:09:32;11.82;;;6.68;;
29712;SDS011;16623;53.632;10.016;2023-04-06T14:11:58;11.73;;;6.00;;
29712;SDS011;16623;53.632;10.016;2023-04-06T14:14:24;9.18;;;6.43;;
29712;SDS011;16623;53.632;10.016;2023-04-06T14:16:51;11.35;;;6.80;;
29712;SDS011;16623;53.632;10.016;2023-04-06T14:19:16;10.07;;;5.97;;
29712;SDS011;16623;53.632;10.016;2023-04-06T14:21:43;9.73;;;6.35;;
29712;SDS011;16623;53.632;10.016;2023-04-06T14:24:09;12.70;;;6.68;;
29712;SDS011;16623;53.632;10.016;2023-04-06T14:26:36;12.10;;;7.20;;
29712;SDS011;16623;53.632;10.016;2023-04-06T14:29:05;11.35;;;6.85;;
29712;SDS011;16623;53.632;10.016;2023-04-06T14:31:31;17.00;;;7.45;;
29712;SDS011;16623;53.632;10.016;2023-04-06T14:33:57;10.85;;;7.10;;
29712;SDS011;16623;53.632;10.016;2023-04-06T14:36:23;11.15;;;7.05;;
29712;SDS011;16623;53.632;10.016;2023-04-06T14:38:51;10.43;;;6.18;;
29712;SDS011;16623;53.632;10.016;2023-04-06T14:41:17;9.05;;;6.45;;
29712;SDS011;16623;53.632;10.016;2023-04-06T14:43:45;9.60;;;7.00;;
29712;SDS011;16623;53.632;10.016;2023-04-06T14:46:11;15.82;;;6.97;;
29712;SDS011;16623;53.632;10.016;2023-04-06T14:48:37;9.48;;;6.30;;
29712;SDS011;16623;53.632;10.016;2023-04-06T14:51:04;10.27;;;7.78;;
29712;SDS011;16623;53.632;10.016;2023-04-06T14:53:29;12.43;;;7.20;;
29712;SDS011;16623;53.632;10.016;2023-04-06T14:55:56;9.48;;;6.25;;
29712;SDS011;16623;53.632;10.016;2023-04-06T14:58:22;11.07;;;7.10;;
29712;SDS011;16623;53.632;10.016;2023-04-06T15:00:48;10.82;;;7.35;;
29712;SDS011;16623;53.632;10.016;2023-04-06T15:03:15;10.60;;;6.28;;
29712;SDS011;16623;53.632;10.016;2023-04-06T15:05:41;12.43;;;6.95;;
29712;SDS011;16623;53.632;10.016;2023-04-06T15:08:07;10.23;;;6.57;;
29712;SDS011;16623;53.632;10.016;2023-04-06T15:10:34;9.20;;;6.22;;
29712;SDS011;16623;53.632;10.016;2023-04-06T15:13:01;13.38;;;7.32;;
29712;SDS011;16623;53.632;10.016;2023-04-06T15:15:27;11.80;;;6.75;;
29712;SDS011;16623;53.632;10.016;2023-04-06T15:17:53;8.82;;;5.43;;
29712;SDS011;16623;53.632;10.016;2023-04-06T15:20:19;11.88;;;7.03;;
29712;SDS011;16623;53.632;10.016;2023-04-06T15:22:44;9.90;;;5.82;;
29712;SDS011;16623;53.632;10.016;2023-04-06T15:25:10;10.68;;;7.18;;
29712;SDS011;16623;53.632;10.016;2023-04-06T15:27:36;11.93;;;6.15;;
29712;SDS011;16623;53.632;10.016;2023-04-06T15:30:02;10.23;;;6.22;;
29712;SDS011;16623;53.632;10.016;2023-04-06T15:32:31;9.35;;;6.13;;
29712;SDS011;16623;53.632;10.016;2023-04-06T15:34:57;10.00;;;6.78;;
29712;SDS011;16623;53.632;10.016;2023-04-06T15:37:23;11.93;;;6.65;;
29712;SDS011;16623;53.632;10.016;2023-04-06T15:39:49;11.02;;;6.22;;
29712;SDS011;16623;53.632;10.016;2023-04-06T15:42:14;10.57;;;6.05;;
29712;SDS011;16623;53.632;10.016;2023-04-06T15:44:40;9.55;;;6.40;;
29712;SDS011;16623;53.632;10.016;2023-04-06T15:47:06;10.70;;;6.63;;
29712;SDS011;16623;53.632;10.016;2023-04-06T15:49:31;9.75;;;6.50;;
29712;SDS011;16623;53.632;10.016;2023-04-06T15:51:57;8.00;;;6.40;;
29712;SDS011;16623;53.632;10.016;2023-04-06T15:54:23;10.73;;;6.07;;
29712;SDS011;16623;53.632;10.016;2023-04-06T15:56:49;10.38;;;6.57;;
29712;SDS011;16623;53.632;10.016;2023-04-06T15:59:15;8.38;;;6.88;;
29712;SDS011;16623;53.632;10.016;2023-04-06T16:01:40;8.35;;;5.88;;
29712;SDS011;16623;53.632;10.016;2023-04-06T16:04:06;12.45;;;7.45;;
29712;SDS011;16623;53.632;10.016;2023-04-06T16:06:33;9.25;;;6.45;;
29712;SDS011;16623;53.632;10.016;2023-04-06T16:08:59;10.27;;;6.63;;
29712;SDS011;16623;53.632;10.016;2023-04-06T16:11:25;11.02;;;7.00;;
29712;SDS011;16623;53.632;10.016;2023-04-06T16:13:52;12.00;;;8.23;;
29712;SDS011;16623;53.632;10.016;2023-04-06T16:16:17;14.00;;;6.43;;
29712;SDS011;16623;53.632;10.016;2023-04-06T16:18:43;10.57;;;7.03;;
29712;SDS011;16623;53.632;10.016;2023-04-06T16:21:14;23.33;;;12.27;;
29712;SDS011;16623;53.632;10.016;2023-04-06T16:23:41;24.27;;;6.97;;
29712;SDS011;16623;53.632;10.016;2023-04-06T16:26:13;14.35;;;6.50;;
29712;SDS011;16623;53.632;10.016;2023-04-06T16:28:41;7.97;;;6.03;;
29712;SDS011;16623;53.632;10.016;2023-04-06T16:31:15;11.52;;;6.65;;
29712;SDS011;16623;53.632;10.016;2023-04-06T16:33:41;9.90;;;5.95;;
29712;SDS011;16623;53.632;10.016;2023-04-06T16:36:07;11.50;;;6.45;;
29712;SDS011;16623;53.632;10.016;2023-04-06T16:38:32;9.65;;;6.18;;
29712;SDS011;16623;53.632;10.016;2023-04-06T16:41:00;10.48;;;7.10;;
29712;SDS011;16623;53.632;10.016;2023-04-06T16:43:26;9.15;;;6.78;;
29712;SDS011;16623;53.632;10.016;2023-04-06T16:45:52;11.93;;;7.07;;
29712;SDS011;16623;53.632;10.016;2023-04-06T16:48:18;12.25;;;6.93;;
29712;SDS011;16623;53.632;10.016;2023-04-06T16:50:43;11.43;;;6.50;;
29712;SDS011;16623;53.632;10.016;2023-04-06T16:53:11;14.75;;;6.30;;
29712;SDS011;16623;53.632;10.016;2023-04-06T16:55:39;9.20;;;6.28;;
29712;SDS011;16623;53.632;10.016;2023-04-06T16:58:07;13.02;;;7.05;;
29712;SDS011;16623;53.632;10.016;2023-04-06T17:00:35;11.98;;;7.43;;
29712;SDS011;16623;53.632;10.016;2023-04-06T17:03:01;11.63;;;6.43;;
29712;SDS011;16623;53.632;10.016;2023-04-06T17:05:26;13.43;;;6.38;;
29712;SDS011;16623;53.632;10.016;2023-04-06T17:07:52;11.75;;;6.47;;
29712;SDS011;16623;53.632;10.016;2023-04-06T17:10:18;8.45;;;6.25;;
29712;SDS011;16623;53.632;10.016;2023-04-06T17:12:44;12.55;;;6.20;;
29712;SDS011;16623;53.632;10.016;2023-04-06T17:15:11;10.10;;;6.55;;
29712;SDS011;16623;53.632;10.016;2023-04-06T17:17:40;8.30;;;5.85;;
29712;SDS011;16623;53.632;10.016;2023-04-06T17:20:06;12.90;;;6.13;;
29712;SDS011;16623;53.632;10.016;2023-04-06T17:22:33;11.00;;;7.18;;
29712;SDS011;16623;53.632;10.016;2023-04-06T17:24:59;10.25;;;6.97;;
29712;SDS011;16623;53.632;10.016;2023-04-06T17:27:26;9.57;;;6.45;;
29712;SDS011;16623;53.632;10.016;2023-04-06T17:29:52;13.57;;;6.90;;
29712;SDS011;16623;53.632;10.016;2023-04-06T17:32:18;9.57;;;6.40;;
29712;SDS011;16623;53.632;10.016;2023-04-06T17:34:45;9.07;;;6.00;;
29712;SDS011;16623;53.632;10.016;2023-04-06T17:37:11;11.75;;;6.35;;
29712;SDS011;16623;53.632;10.016;2023-04-06T17:39:37;11.50;;;5.82;;
29712;SDS011;16623;53.632;10.016;2023-04-06T17:42:03;12.98;;;6.22;;
29712;SDS011;16623;53.632;10.016;2023-04-06T17:44:34;9.00;;;6.00;;
29712;SDS011;16623;53.632;10.016;2023-04-06T17:47:00;13.05;;;6.90;;
29712;SDS011;16623;53.632;10.016;2023-04-06T17:49:25;10.23;;;6.78;;
29712;SDS011;16623;53.632;10.016;2023-04-06T17:51:51;17.17;;;7.30;;